Time;durP1;ratioP1;P1;durP2;ratioP2;P2;SDS_P1;SDS_P2;PMS_P1;PMS_P2;Temp;Humidity;BMP_temperature;BMP_pressure;BME280_temperature;BME280_humidity;BME280_pressure;Samples;Min_cycle;Max_cycle;Signal;HPM_P1;HPM_P2
2022/06/24 00:02:04;;;;;;;2.73;2.53;;;27.60;55.70;;;;;;5078836;28;20537;-48
2022/06/24 00:04:51;;;;;;;3.47;3.03;;;27.60;55.70;;;;;;5095779;27;21186;-48
2022/06/24 00:07:45;;;;;;;3.60;2.50;;;27.60;55.60;;;;;;5095512;27;20604;-50
2022/06/24 00:10:31;;;;;;;3.70;2.83;;;27.60;55.80;;;;;;5127676;27;20575;-49
2022/06/24 00:13:12;;;;;;;3.40;2.90;;;27.60;55.90;;;;;;5070513;28;20587;-49
2022/06/24 00:15:53;;;;;;;2.97;2.67;;;27.70;55.90;;;;;;5072813;28;20537;-47
2022/06/24 00:18:33;;;;;;;2.93;2.73;;;27.60;55.90;;;;;;5056284;27;20648;-46
2022/06/24 00:21:14;;;;;;;2.77;2.57;;;27.60;56.00;;;;;;5077223;27;21057;-48
2022/06/24 00:23:55;;;;;;;2.60;2.40;;;27.60;55.90;;;;;;5065504;27;20959;-47
2022/06/24 00:26:41;;;;;;;2.97;2.43;;;27.60;55.80;;;;;;5115814;27;20570;-49
2022/06/24 00:29:27;;;;;;;3.03;2.20;;;27.60;55.90;;;;;;5095063;27;20579;-47
2022/06/24 00:32:09;;;;;;;3.50;2.20;;;27.60;56.00;;;;;;5074584;28;20545;-49
2022/06/24 00:35:02;;;;;;;2.40;2.20;;;27.60;55.60;;;;;;5121473;27;20538;-48
2022/06/24 00:37:44;;;;;;;2.13;1.93;;;27.60;55.80;;;;;;5078594;27;20530;-49
2022/06/24 00:40:26;;;;;;;3.13;2.33;;;27.60;55.70;;;;;;5098972;27;20523;-49
2022/06/24 00:43:07;;;;;;;2.60;2.40;;;27.60;55.60;;;;;;5067464;27;20601;-48
2022/06/24 00:45:51;;;;;;;2.70;2.13;;;27.60;55.60;;;;;;5120694;27;20573;-49
2022/06/24 00:48:35;;;;;;;1.80;1.70;;;27.60;55.60;;;;;;5064147;28;20547;-48
2022/06/24 00:51:16;;;;;;;2.77;2.57;;;27.60;55.60;;;;;;5081431;27;20589;-49
2022/06/24 00:53:58;;;;;;;3.20;2.00;;;27.60;55.70;;;;;;5105539;27;20586;-47
2022/06/24 00:56:39;;;;;;;2.30;2.10;;;27.50;55.60;;;;;;5103498;27;20573;-49
2022/06/24 00:59:25;;;;;;;2.00;1.80;;;27.60;55.60;;;;;;5078870;28;20569;-48
2022/06/24 01:02:07;;;;;;;2.13;1.93;;;27.60;55.60;;;;;;5098430;27;21076;-48
2022/06/24 01:04:47;;;;;;;3.67;2.63;;;27.50;55.60;;;;;;5066181;28;20618;-49
2022/06/24 01:07:27;;;;;;;2.13;2.03;;;27.60;55.60;;;;;;5049362;28;20606;-49
2022/06/24 01:10:10;;;;;;;2.40;2.20;;;27.50;55.60;;;;;;5112421;27;20584;-49
2022/06/24 01:12:51;;;;;;;2.70;2.10;;;27.50;55.60;;;;;;5076144;27;20537;-47
2022/06/24 01:15:32;;;;;;;2.13;1.93;;;27.60;55.60;;;;;;5075427;28;21130;-48
2022/06/24 01:18:13;;;;;;;2.40;2.03;;;27.60;55.60;;;;;;5069112;27;20554;-49
2022/06/24 01:20:53;;;;;;;2.20;2.00;;;27.50;55.70;;;;;;5094448;27;20589;-50
2022/06/24 01:23:32;;;;;;;1.70;1.60;;;27.50;55.60;;;;;;5091141;27;20589;-48
2022/06/24 01:26:13;;;;;;;2.80;2.20;;;27.50;55.60;;;;;;5075139;27;20597;-48
2022/06/24 01:28:54;;;;;;;2.43;2.23;;;27.50;55.60;;;;;;5067039;27;20954;-48
2022/06/24 01:31:34;;;;;;;2.00;1.80;;;27.60;55.60;;;;;;5115667;27;20572;-49
2022/06/24 01:34:16;;;;;;;2.03;1.93;;;27.50;55.60;;;;;;5141360;27;20591;-49
2022/06/24 01:36:57;;;;;;;4.50;2.13;;;27.50;55.70;;;;;;5072909;28;20611;-49
2022/06/24 01:39:38;;;;;;;2.30;2.10;;;27.50;55.60;;;;;;5078741;28;20586;-46
2022/06/24 01:42:18;;;;;;;2.20;2.07;;;27.50;55.70;;;;;;5042227;28;20942;-50
2022/06/24 01:44:59;;;;;;;1.90;1.70;;;27.50;55.60;;;;;;5097807;27;20611;-49
2022/06/24 01:47:39;;;;;;;3.00;2.10;;;27.50;55.60;;;;;;5069155;28;20533;-48
2022/06/24 01:50:19;;;;;;;3.13;2.27;;;27.50;55.60;;;;;;5068379;28;20529;-47
2022/06/24 01:53:00;;;;;;;3.13;2.00;;;27.50;55.70;;;;;;5067007;22;20562;-72
2022/06/24 01:55:40;;;;;;;2.40;2.20;;;27.50;55.70;;;;;;5096158;27;20597;-50
2022/06/24 01:58:21;;;;;;;2.47;1.90;;;27.50;55.60;;;;;;5076636;27;20586;-51
2022/06/24 02:01:03;;;;;;;2.77;2.37;;;27.50;55.60;;;;;;5084538;27;20593;-49
2022/06/24 02:03:44;;;;;;;3.10;1.83;;;27.50;55.60;;;;;;5050813;27;20616;-48
2022/06/24 02:06:25;;;;;;;2.00;1.77;;;27.50;55.70;;;;;;5124923;27;21059;-49
2022/06/24 02:09:05;;;;;;;3.57;3.27;;;27.50;55.70;;;;;;5127531;27;20524;-46
2022/06/24 02:14:44;;;;;;;1.93;1.83;;;27.40;55.70;;;;;;5054075;28;20607;-49
2022/06/24 02:17:25;;;;;;;2.07;1.90;;;27.40;55.60;;;;;;5086337;27;20579;-51
2022/06/24 02:20:11;;;;;;;2.13;2.00;;;27.40;55.70;;;;;;5086397;28;20574;-51
2022/06/24 02:22:52;;;;;;;2.53;2.37;;;27.40;55.80;;;;;;5105803;27;20605;-49
2022/06/24 02:25:33;;;;;;;2.23;2.13;;;27.40;55.90;;;;;;5104770;27;20542;-47
2022/06/24 02:28:13;;;;;;;2.17;1.70;;;27.40;55.70;;;;;;5060507;28;20584;-48
2022/06/24 02:30:56;;;;;;;1.93;1.83;;;27.40;55.60;;;;;;5081730;28;20587;-48
2022/06/24 02:33:37;;;;;;;2.33;2.23;;;27.40;55.70;;;;;;5064494;27;21149;-47
2022/06/24 02:36:19;;;;;;;2.10;1.90;;;27.40;55.90;;;;;;5082845;28;20605;-48
2022/06/24 02:39:00;;;;;;;2.20;2.00;;;27.40;55.80;;;;;;5135043;27;20548;-50
2022/06/24 02:41:40;;;;;;;2.37;2.17;;;27.40;55.70;;;;;;5134654;27;21177;-48
2022/06/24 02:44:19;;;;;;;2.00;1.90;;;27.40;55.70;;;;;;5115828;27;20599;-48
2022/06/24 02:46:59;;;;;;;2.00;1.90;;;27.40;55.70;;;;;;5099228;27;20590;-48
2022/06/24 02:49:42;;;;;;;2.00;1.87;;;27.40;55.70;;;;;;5096677;27;20512;-48
2022/06/24 02:52:22;;;;;;;2.37;2.17;;;27.40;55.60;;;;;;5095820;27;20590;-51
2022/06/24 02:55:02;;;;;;;2.80;2.20;;;27.40;55.70;;;;;;5116341;27;20600;-50
2022/06/24 02:57:43;;;;;;;2.23;2.03;;;27.40;55.60;;;;;;5053253;28;20589;-47
2022/06/24 03:00:23;;;;;;;2.40;2.20;;;27.40;55.80;;;;;;5105041;27;20557;-48
2022/06/24 03:03:03;;;;;;;1.90;1.80;;;27.40;55.80;;;;;;5066306;27;20588;-49
2022/06/24 03:05:45;;;;;;;1.53;1.43;;;27.40;55.70;;;;;;5114319;27;20599;-51
2022/06/24 03:08:27;;;;;;;1.47;1.37;;;27.30;55.70;;;;;;5052705;27;20602;-49
2022/06/24 03:11:07;;;;;;;2.03;1.63;;;27.30;55.60;;;;;;5075795;27;20575;-49
2022/06/24 03:13:47;;;;;;;2.60;1.97;;;27.30;55.80;;;;;;5063289;27;20596;-47
2022/06/24 03:16:27;;;;;;;1.90;1.80;;;27.40;55.70;;;;;;5078499;28;20578;-48
2022/06/24 03:19:08;;;;;;;2.20;2.00;;;27.30;55.60;;;;;;5122302;27;20518;-49
2022/06/24 03:21:48;;;;;;;1.83;1.70;;;27.30;55.60;;;;;;5071148;27;20613;-48
2022/06/24 03:24:29;;;;;;;2.80;2.07;;;27.30;55.60;;;;;;5069535;28;20583;-48
2022/06/24 03:27:09;;;;;;;2.33;2.13;;;27.30;55.60;;;;;;5069721;28;21133;-48
2022/06/24 03:29:49;;;;;;;1.90;1.80;;;27.30;55.60;;;;;;5082925;28;20527;-46
2022/06/24 03:32:31;;;;;;;1.70;1.60;;;27.30;55.60;;;;;;5112372;27;21115;-48
2022/06/24 03:35:12;;;;;;;4.40;1.60;;;27.30;55.60;;;;;;5097711;27;20942;-49
2022/06/24 03:37:52;;;;;;;1.60;1.50;;;27.30;55.80;;;;;;5063005;28;20585;-48
2022/06/24 03:40:33;;;;;;;2.00;1.90;;;27.30;55.80;;;;;;5081765;27;20528;-49
2022/06/24 03:43:13;;;;;;;1.80;1.70;;;27.30;55.90;;;;;;5077332;27;20545;-50
2022/06/24 03:46:01;;;;;;;2.00;1.90;;;27.20;55.80;;;;;;5044642;27;20562;-46
2022/06/24 03:48:42;;;;;;;2.10;1.90;;;27.20;55.60;;;;;;5052196;27;20553;-48
2022/06/24 03:51:22;;;;;;;2.27;2.00;;;27.30;55.90;;;;;;5084164;27;20594;-47
2022/06/24 03:54:04;;;;;;;2.07;1.87;;;27.30;55.90;;;;;;5078672;27;21102;-49
2022/06/24 03:56:45;;;;;;;2.23;2.10;;;27.20;55.80;;;;;;5107522;27;20892;-47
2022/06/24 03:59:25;;;;;;;2.10;1.80;;;27.20;55.70;;;;;;5078256;28;20585;-47
2022/06/24 04:02:06;;;;;;;1.80;1.70;;;27.20;55.80;;;;;;5075178;28;20952;-49
2022/06/24 04:04:47;;;;;;;2.03;1.63;;;27.20;55.90;;;;;;5057557;27;21013;-48
2022/06/24 04:07:27;;;;;;;1.90;1.77;;;27.20;55.80;;;;;;5074428;27;20607;-50
2022/06/24 04:10:08;;;;;;;1.60;1.50;;;27.20;55.90;;;;;;5108490;27;20516;-50
2022/06/24 04:12:48;;;;;;;1.97;1.87;;;27.20;55.90;;;;;;5095215;27;20583;-47
2022/06/24 04:15:28;;;;;;;2.30;2.10;;;27.20;55.90;;;;;;5121118;27;20536;-49
2022/06/24 04:18:10;;;;;;;1.83;1.70;;;27.20;55.90;;;;;;5044553;28;20956;-49
2022/06/24 04:20:51;;;;;;;1.70;1.60;;;27.20;55.90;;;;;;5078597;27;20528;-49
2022/06/24 04:23:33;;;;;;;1.87;1.70;;;27.20;55.80;;;;;;5075249;27;20984;-48
2022/06/24 04:26:14;;;;;;;2.47;1.97;;;27.20;55.90;;;;;;5074876;27;22520;-48
2022/06/24 04:28:54;;;;;;;2.00;1.80;;;27.10;55.80;;;;;;5061285;27;21132;-48
2022/06/24 04:31:33;;;;;;;2.30;2.10;;;27.10;55.90;;;;;;5127025;27;20525;-49
2022/06/24 04:34:15;;;;;;;2.40;2.20;;;27.20;56.00;;;;;;5072024;27;20539;-49
2022/06/24 04:36:55;;;;;;;1.60;1.50;;;27.10;56.00;;;;;;5097779;27;20929;-48
2022/06/24 04:39:35;;;;;;;3.63;1.60;;;27.10;55.90;;;;;;5071454;27;20589;-48
2022/06/24 04:42:16;;;;;;;1.80;1.70;;;27.10;55.90;;;;;;5123438;27;20576;-49
2022/06/24 04:44:56;;;;;;;1.63;1.53;;;27.10;55.90;;;;;;5122835;27;20546;-51
2022/06/24 04:47:35;;;;;;;2.20;1.87;;;27.10;56.10;;;;;;5083230;27;20531;-48
2022/06/24 04:50:16;;;;;;;1.73;1.63;;;27.10;57.20;;;;;;5098107;27;20584;-50
2022/06/24 04:52:57;;;;;;;2.33;1.93;;;27.10;56.10;;;;;;5092424;27;20958;-48
2022/06/24 04:55:36;;;;;;;1.80;1.70;;;27.10;56.10;;;;;;5125305;27;20540;-48
2022/06/24 04:58:16;;;;;;;2.30;2.10;;;27.10;56.00;;;;;;5056750;28;21111;-48
2022/06/24 05:00:56;;;;;;;1.57;1.47;;;27.10;56.00;;;;;;5107829;27;21056;-49
2022/06/24 05:03:37;;;;;;;2.03;1.93;;;27.10;56.10;;;;;;5060249;27;20550;-48
2022/06/24 05:06:19;;;;;;;1.90;1.80;;;27.10;56.10;;;;;;5082456;27;20610;-47
2022/06/24 05:09:01;;;;;;;1.87;1.77;;;27.00;56.10;;;;;;5086997;28;20554;-49
2022/06/24 05:11:42;;;;;;;4.37;1.90;;;27.00;56.20;;;;;;5108148;27;20576;-47
2022/06/24 05:14:23;;;;;;;1.70;1.60;;;27.00;56.10;;;;;;5077004;28;20553;-47
2022/06/24 05:17:03;;;;;;;1.97;1.70;;;27.00;56.10;;;;;;5080045;28;20532;-49
2022/06/24 05:19:45;;;;;;;1.73;1.63;;;27.00;56.00;;;;;;5108431;27;20559;-48
2022/06/24 05:22:26;;;;;;;1.87;1.53;;;27.10;56.10;;;;;;5060086;28;20550;-48
2022/06/24 05:25:08;;;;;;;2.83;1.90;;;27.00;56.10;;;;;;5080978;27;20575;-50
2022/06/24 05:27:49;;;;;;;1.83;1.73;;;27.00;56.10;;;;;;5074946;27;20968;-49
2022/06/24 05:30:30;;;;;;;1.90;1.80;;;27.00;56.10;;;;;;5077364;28;20533;-47
2022/06/24 05:33:12;;;;;;;1.80;1.70;;;27.00;56.10;;;;;;5057314;28;20554;-48
2022/06/24 05:35:58;;;;;;;2.33;1.67;;;27.00;56.20;;;;;;5076077;28;20607;-49
2022/06/24 05:38:41;;;;;;;1.40;1.30;;;27.00;56.20;;;;;;5084173;27;20572;-47
2022/06/24 05:41:27;;;;;;;1.83;1.60;;;26.90;56.20;;;;;;5127480;27;20559;-49
2022/06/24 05:44:09;;;;;;;2.50;2.00;;;26.90;56.20;;;;;;5129288;27;20496;-47
2022/06/24 05:46:51;;;;;;;2.37;2.17;;;26.90;56.30;;;;;;5112626;27;20579;-48
2022/06/24 05:49:42;;;;;;;1.60;1.50;;;26.90;56.40;;;;;;5162217;27;20670;-49
2022/06/24 05:55:20;;;;;;;1.90;1.70;;;26.90;56.40;;;;;;5064641;27;20511;-49
2022/06/24 05:58:00;;;;;;;1.97;1.77;;;26.90;56.40;;;;;;5121787;27;1213500;-49
2022/06/24 06:00:42;;;;;;;1.80;1.70;;;26.90;56.40;;;;;;5070839;27;20550;-50
2022/06/24 06:03:22;;;;;;;1.80;1.70;;;26.90;56.30;;;;;;5089355;27;20568;-47
2022/06/24 06:06:04;;;;;;;1.70;1.60;;;26.90;56.30;;;;;;5074841;27;21153;-48
2022/06/24 06:08:47;;;;;;;1.73;1.63;;;26.90;56.40;;;;;;5066565;27;20542;-49
2022/06/24 06:11:29;;;;;;;1.70;1.60;;;26.90;56.40;;;;;;5143247;27;21191;-49
2022/06/24 06:14:13;;;;;;;1.30;1.20;;;26.90;56.40;;;;;;5077786;27;20539;-49
2022/06/24 06:16:55;;;;;;;1.70;1.60;;;26.90;56.40;;;;;;5098111;27;20938;-49
2022/06/24 06:19:37;;;;;;;1.60;1.50;;;26.90;57.60;;;;;;5107584;27;20661;-48
2022/06/24 06:22:21;;;;;;;2.07;1.87;;;26.80;56.30;;;;;;5019643;27;20627;-48
2022/06/24 06:25:02;;;;;;;1.90;1.80;;;26.80;56.30;;;;;;5081221;28;20559;-49
2022/06/24 06:27:45;;;;;;;1.90;1.80;;;26.80;56.30;;;;;;5109768;27;20615;-48
2022/06/24 06:30:28;;;;;;;2.20;2.00;;;26.80;56.30;;;;;;5097728;27;20588;-50
2022/06/24 06:33:10;;;;;;;1.70;1.60;;;26.80;56.30;;;;;;5060542;27;20593;-49
2022/06/24 06:35:50;;;;;;;1.80;1.70;;;26.80;56.30;;;;;;5143656;27;20610;-48
2022/06/24 06:38:34;;;;;;;2.17;1.50;;;26.80;56.30;;;;;;5078740;27;20531;-51
2022/06/24 06:41:18;;;;;;;1.80;1.67;;;26.80;56.20;;;;;;5088022;27;20893;-49
2022/06/24 06:44:02;;;;;;;1.73;1.50;;;26.80;56.20;;;;;;5118048;27;20830;-49
2022/06/24 06:46:42;;;;;;;1.47;1.37;;;26.80;56.30;;;;;;5086704;27;21057;-49
2022/06/24 06:49:22;;;;;;;1.43;1.33;;;26.80;56.40;;;;;;5069917;28;20536;-50
2022/06/24 06:52:06;;;;;;;1.70;1.60;;;26.80;56.40;;;;;;5117649;27;20531;-49
2022/06/24 06:54:47;;;;;;;1.53;1.43;;;26.70;56.30;;;;;;5054939;28;20526;-50
2022/06/24 06:57:28;;;;;;;2.17;1.60;;;26.70;56.30;;;;;;5077251;27;20553;-48
2022/06/24 07:00:11;;;;;;;1.80;1.70;;;26.70;56.30;;;;;;5081068;28;20567;-49
2022/06/24 07:02:53;;;;;;;1.90;1.80;;;26.70;56.30;;;;;;5072468;27;20548;-48
2022/06/24 07:05:34;;;;;;;1.67;1.57;;;26.70;56.30;;;;;;5112055;27;20623;-48
2022/06/24 07:08:16;;;;;;;1.60;1.50;;;26.70;56.30;;;;;;5070167;28;20544;-47
2022/06/24 07:10:59;;;;;;;2.40;1.80;;;26.70;56.40;;;;;;5198284;27;20527;-50
2022/06/24 07:13:41;;;;;;;1.53;1.40;;;26.70;56.40;;;;;;5061612;27;20534;-49
2022/06/24 07:16:23;;;;;;;1.53;1.43;;;26.70;56.40;;;;;;5097547;27;20532;-51
2022/06/24 07:19:04;;;;;;;1.80;1.70;;;26.70;56.30;;;;;;5114476;27;20831;-48
2022/06/24 07:21:45;;;;;;;1.60;1.50;;;26.70;56.40;;;;;;5151965;27;20527;-48
2022/06/24 07:24:25;;;;;;;1.50;1.40;;;26.70;56.40;;;;;;5123815;27;20935;-50
2022/06/24 07:27:08;;;;;;;1.90;1.80;;;26.70;56.50;;;;;;5082660;27;20525;-49
2022/06/24 07:29:48;;;;;;;1.73;1.30;;;26.70;56.40;;;;;;5065867;28;20533;-49
2022/06/24 07:32:29;;;;;;;1.70;1.60;;;26.60;56.30;;;;;;5070367;27;20533;-49
2022/06/24 07:35:11;;;;;;;1.60;1.30;;;26.70;56.40;;;;;;5065389;27;20530;-52
2022/06/24 07:38:11;;;;;;;1.50;1.40;;;26.60;56.20;;;;;;5072005;27;21146;-47
2022/06/24 07:40:55;;;;;;;1.33;1.23;;;26.70;56.30;;;;;;5117700;27;20574;-50
2022/06/24 07:43:37;;;;;;;1.40;1.30;;;26.60;56.40;;;;;;5090927;27;20972;-49
2022/06/24 07:46:17;;;;;;;1.40;1.30;;;26.60;56.40;;;;;;5077217;28;20536;-50
2022/06/24 07:48:57;;;;;;;1.60;1.50;;;26.60;56.30;;;;;;5048875;27;20534;-47
2022/06/24 07:51:42;;;;;;;7.00;2.37;;;26.60;56.40;;;;;;5092170;27;20596;-49
2022/06/24 07:54:24;;;;;;;2.77;1.80;;;26.60;57.00;;;;;;5112501;27;20963;-50
2022/06/24 07:57:05;;;;;;;2.07;1.70;;;26.50;57.20;;;;;;5070601;28;20539;-48
2022/06/24 07:59:46;;;;;;;2.13;1.90;;;26.50;57.10;;;;;;5071298;27;20515;-48
2022/06/24 08:02:28;;;;;;;2.23;1.63;;;26.40;57.00;;;;;;5067092;27;20587;-51
2022/06/24 08:05:09;;;;;;;3.67;2.60;;;26.50;56.80;;;;;;5083973;27;20896;-50
2022/06/24 08:07:52;;;;;;;3.10;2.80;;;26.50;57.60;;;;;;5071978;28;20600;-48
2022/06/24 08:10:34;;;;;;;2.53;2.33;;;26.50;58.00;;;;;;5074716;27;20537;-49
2022/06/24 08:13:16;;;;;;;2.67;2.47;;;26.40;58.30;;;;;;5060991;27;20550;-48
2022/06/24 08:15:58;;;;;;;5.60;2.67;;;26.40;58.60;;;;;;5065665;27;21216;-49
2022/06/24 08:18:39;;;;;;;3.90;2.73;;;26.40;58.90;;;;;;5064285;27;20538;-48
2022/06/24 08:21:21;;;;;;;3.13;2.83;;;26.40;59.10;;;;;;5013569;28;20570;-48
2022/06/24 08:24:03;;;;;;;3.60;3.00;;;26.30;58.90;;;;;;5052955;27;20554;-47
2022/06/24 08:26:43;;;;;;;3.97;2.80;;;26.30;59.10;;;;;;5098487;27;20624;-50
2022/06/24 08:29:25;;;;;;;5.13;2.87;;;26.30;59.30;;;;;;5131743;27;20624;-48
2022/06/24 08:32:08;;;;;;;3.90;2.70;;;26.30;59.50;;;;;;5083724;27;21148;-48
2022/06/24 08:34:49;;;;;;;3.07;2.50;;;26.30;60.20;;;;;;5107370;27;20936;-48
2022/06/24 08:37:51;;;;;;;2.50;2.30;;;26.20;60.60;;;;;;5094398;27;20610;-48
2022/06/24 08:40:33;;;;;;;3.43;2.63;;;26.20;60.20;;;;;;5113971;27;20666;-48
2022/06/24 08:43:15;;;;;;;2.40;2.13;;;26.20;60.20;;;;;;5058150;27;20579;-49
2022/06/24 08:45:57;;;;;;;7.80;2.63;;;26.20;60.10;;;;;;5114321;27;20935;-51
2022/06/24 08:48:39;;;;;;;2.53;2.33;;;26.20;60.40;;;;;;5060982;27;20584;-49
2022/06/24 08:51:22;;;;;;;3.20;2.37;;;26.20;60.60;;;;;;5103925;27;20563;-49
2022/06/24 08:54:04;;;;;;;5.20;2.60;;;26.10;60.60;;;;;;5084957;27;20584;-49
2022/06/24 08:57:06;;;;;;;2.50;2.30;;;26.10;60.90;;;;;;5113008;27;20944;-48
2022/06/24 08:59:47;;;;;;;3.30;2.20;;;26.10;60.80;;;;;;5130258;27;20315;-48
2022/06/24 09:02:28;;;;;;;2.37;2.00;;;26.10;61.00;;;;;;5067494;27;21060;-50
2022/06/24 09:05:14;;;;;;;4.80;2.60;;;26.20;61.30;;;;;;5083766;28;21177;-49
2022/06/24 09:08:05;;;;;;;3.10;2.23;;;26.20;61.10;;;;;;5106810;27;20955;-48
2022/06/24 09:11:06;;;;;;;3.23;2.30;;;26.20;61.20;;;;;;5087399;28;20527;-48
2022/06/24 09:13:48;;;;;;;4.65;2.75;;;26.20;61.20;;;;;;5059179;27;20454;-49
2022/06/24 09:16:30;;;;;;;2.47;2.23;;;26.20;60.80;;;;;;5101076;27;20538;-50
2022/06/24 09:19:14;;;;;;;2.33;1.90;;;26.10;60.50;;;;;;5088032;27;20538;-48
2022/06/24 09:22:00;;;;;;;2.33;2.13;;;26.10;60.50;;;;;;5072394;27;21010;-49
2022/06/24 09:24:50;;;;;;;3.30;2.20;;;26.10;60.20;;;;;;5079863;27;20561;-48
2022/06/24 09:27:29;;;;;;;2.93;2.43;;;26.10;60.10;;;;;;5097274;27;1275849;-50
2022/06/24 09:30:11;;;;;;;2.03;1.93;;;26.10;60.10;;;;;;5100711;27;21058;-52
2022/06/24 09:32:53;;;;;;;2.97;2.10;;;26.10;59.80;;;;;;5052172;27;20551;-48
2022/06/24 09:36:02;;;;;;;2.30;2.10;;;26.10;59.90;;;;;;5077488;28;20468;-50
2022/06/24 09:38:59;;;;;;;2.90;2.70;;;26.20;60.10;;;;;;5042258;27;20600;-47
2022/06/24 09:41:48;;;;;;;2.30;1.77;;;26.20;60.30;;;;;;5123012;27;20594;-52
2022/06/24 09:44:45;;;;;;;2.85;2.50;;;26.20;60.00;;;;;;5144495;27;20476;-50
2022/06/24 09:47:26;;;;;;;2.57;2.37;;;26.10;61.00;;;;;;5072869;27;20975;-49
2022/06/24 09:50:09;;;;;;;2.40;2.20;;;26.10;60.50;;;;;;5077295;27;20516;-50
2022/06/24 09:52:51;;;;;;;2.93;2.27;;;26.00;60.20;;;;;;5069292;28;20545;-47
2022/06/24 09:55:31;;;;;;;1.90;1.73;;;26.00;59.70;;;;;;5077312;28;20578;-49
2022/06/24 09:58:14;;;;;;;1.80;1.70;;;26.00;59.70;;;;;;5057918;27;20530;-50
2022/06/24 10:00:54;;;;;;;2.87;2.40;;;26.10;59.60;;;;;;5073112;27;20579;-48
2022/06/24 10:03:37;;;;;;;3.17;1.83;;;26.10;59.40;;;;;;5034791;28;20551;-49
2022/06/24 10:06:21;;;;;;;2.33;2.13;;;26.10;59.50;;;;;;5104841;27;20534;-51
2022/06/24 10:09:03;;;;;;;3.07;2.17;;;26.10;59.00;;;;;;5082214;27;20670;-48
2022/06/24 10:11:49;;;;;;;2.97;2.33;;;26.10;58.90;;;;;;5104479;27;20576;-48
2022/06/24 10:14:31;;;;;;;2.53;1.80;;;26.20;59.00;;;;;;5078522;27;20539;-50
2022/06/24 10:17:13;;;;;;;3.23;2.10;;;26.10;58.90;;;;;;5075744;27;20595;-49
2022/06/24 10:19:55;;;;;;;2.50;2.30;;;26.20;58.70;;;;;;5117399;27;21087;-50
2022/06/24 10:22:38;;;;;;;2.70;2.40;;;26.20;58.60;;;;;;5082896;27;20546;-49
2022/06/24 10:25:52;;;;;;;2.43;2.23;;;26.20;58.20;;;;;;5111497;27;21077;-48
2022/06/24 10:28:33;;;;;;;2.10;1.90;;;26.20;58.60;;;;;;5050406;28;20550;-50
2022/06/24 10:31:14;;;;;;;2.30;2.10;;;26.10;58.70;;;;;;5080451;28;20517;-48
2022/06/24 10:33:57;;;;;;;2.07;1.90;;;26.20;58.40;;;;;;5065436;27;20532;-49
2022/06/24 10:36:39;;;;;;;3.03;1.80;;;26.10;58.30;;;;;;5109261;27;20555;-49
2022/06/24 10:39:23;;;;;;;1.77;1.67;;;26.10;58.00;;;;;;5078831;27;21045;-49
2022/06/24 10:42:05;;;;;;;2.27;1.73;;;26.10;58.00;;;;;;5108895;27;21023;-50
2022/06/24 10:44:58;;;;;;;2.23;2.00;;;26.10;58.10;;;;;;5073918;28;20541;-49
2022/06/24 10:47:43;;;;;;;2.20;2.07;;;26.10;57.90;;;;;;5062803;27;21223;-49
2022/06/24 10:50:23;;;;;;;3.93;2.10;;;26.10;58.00;;;;;;5125200;27;20566;-51
2022/06/24 10:53:04;;;;;;;1.90;1.80;;;26.10;58.10;;;;;;5037416;27;20588;-50
2022/06/24 10:55:45;;;;;;;2.60;2.40;;;26.10;58.00;;;;;;5053934;27;20628;-49
2022/06/24 10:58:26;;;;;;;1.93;1.77;;;26.10;57.90;;;;;;5061049;27;20542;-49
2022/06/24 11:01:06;;;;;;;2.03;1.83;;;26.10;57.60;;;;;;5119750;27;20528;-49
2022/06/24 11:03:48;;;;;;;2.27;2.10;;;26.10;57.40;;;;;;5009899;28;20572;-53
2022/06/24 11:06:29;;;;;;;2.80;1.97;;;26.10;57.50;;;;;;5083424;28;20532;-47
2022/06/24 11:09:10;;;;;;;2.23;2.00;;;26.10;57.70;;;;;;5088289;27;20524;-49
2022/06/24 11:11:51;;;;;;;2.03;1.70;;;26.10;57.30;;;;;;5092005;27;20605;-51
2022/06/24 11:14:38;;;;;;;2.70;2.00;;;26.10;57.60;;;;;;5069313;27;20545;-50
2022/06/24 11:17:17;;;;;;;2.33;2.13;;;26.10;57.40;;;;;;5116938;27;20914;-52
2022/06/24 11:20:00;;;;;;;1.73;1.63;;;26.10;57.50;;;;;;5087044;28;20519;-50
2022/06/24 11:22:44;;;;;;;2.73;1.87;;;26.10;57.50;;;;;;5079592;27;21037;-48
2022/06/24 11:25:26;;;;;;;3.63;2.03;;;26.10;57.60;;;;;;5076315;27;21074;-51
2022/06/24 11:28:18;;;;;;;2.97;1.83;;;26.10;57.60;;;;;;5069543;27;20612;-49
2022/06/24 11:31:16;;;;;;;3.30;1.83;;;26.10;57.50;;;;;;5085379;28;20531;-48
2022/06/24 11:34:10;;;;;;;1.70;1.60;;;26.10;57.20;;;;;;5053489;27;20546;-50
2022/06/24 11:36:51;;;;;;;2.33;1.83;;;26.10;57.20;;;;;;5078813;28;20594;-50
2022/06/24 11:39:34;;;;;;;1.87;1.67;;;26.10;57.20;;;;;;5110077;27;20591;-52
2022/06/24 11:42:18;;;;;;;2.07;1.87;;;26.10;57.30;;;;;;5074986;27;21095;-49
2022/06/24 11:44:58;;;;;;;2.07;1.97;;;26.10;57.50;;;;;;5012777;28;20557;-50
2022/06/24 11:47:39;;;;;;;2.10;1.90;;;26.10;57.50;;;;;;5075797;28;20548;-47
2022/06/24 11:50:21;;;;;;;2.13;1.80;;;26.10;57.70;;;;;;5077335;28;20569;-50
2022/06/24 11:53:03;;;;;;;2.40;2.20;;;26.10;57.90;;;;;;5102356;27;20671;-52
2022/06/24 11:55:59;;;;;;;1.87;1.77;;;26.00;57.90;;;;;;5071488;28;20539;-47
2022/06/24 11:58:42;;;;;;;2.10;2.00;;;26.00;57.90;;;;;;5076749;27;20954;-48
2022/06/24 12:01:24;;;;;;;2.43;2.23;;;26.10;58.10;;;;;;5120892;27;20506;-50
2022/06/24 12:04:08;;;;;;;2.67;2.47;;;26.00;57.80;;;;;;5066049;27;20595;-50
2022/06/24 12:06:49;;;;;;;1.77;1.67;;;26.00;57.80;;;;;;5102166;27;20873;-50
2022/06/24 12:09:30;;;;;;;2.93;2.20;;;26.00;57.90;;;;;;5131176;27;20513;-46
2022/06/24 12:12:13;;;;;;;2.30;2.10;;;26.10;57.90;;;;;;5087624;27;20532;-49
2022/06/24 12:14:58;;;;;;;2.57;2.37;;;26.00;57.70;;;;;;5079376;27;21108;-50
2022/06/24 12:17:51;;;;;;;5.40;2.13;;;26.10;57.90;;;;;;4987070;28;20578;-46
2022/06/24 12:20:32;;;;;;;4.00;2.30;;;26.10;57.80;;;;;;5109780;27;20529;-48
2022/06/24 12:23:15;;;;;;;3.97;2.23;;;26.00;57.60;;;;;;5119573;27;1241624;-47
2022/06/24 12:25:56;;;;;;;1.90;1.80;;;26.00;57.50;;;;;;5122189;27;20530;-48
2022/06/24 12:28:36;;;;;;;2.23;2.03;;;26.10;57.40;;;;;;5067703;27;20583;-49
2022/06/24 12:31:17;;;;;;;1.87;1.73;;;26.00;57.40;;;;;;5079755;28;20524;-51
2022/06/24 12:33:58;;;;;;;2.00;1.90;;;26.10;57.50;;;;;;5068866;27;20599;-50
2022/06/24 12:36:41;;;;;;;2.77;1.90;;;26.00;57.30;;;;;;5088905;27;20581;-49
2022/06/24 12:39:28;;;;;;;2.40;2.20;;;26.10;57.40;;;;;;5073656;28;20554;-44
2022/06/24 12:42:13;;;;;;;2.27;2.10;;;26.10;57.40;;;;;;5116236;27;20579;-50
2022/06/24 12:44:58;;;;;;;3.63;2.40;;;26.10;57.30;;;;;;5080537;28;21087;-48
2022/06/24 12:50:57;;;;;;;2.87;2.10;;;26.10;57.40;;;;;;5065090;28;20591;-49
2022/06/24 12:53:38;;;;;;;2.10;1.77;;;26.10;57.50;;;;;;5034665;27;20574;-47
2022/06/24 12:56:20;;;;;;;2.10;1.90;;;26.10;57.60;;;;;;5128167;27;20512;-49
2022/06/24 12:59:01;;;;;;;1.93;1.83;;;26.10;57.50;;;;;;5083948;27;20598;-50
2022/06/24 13:01:44;;;;;;;2.03;1.93;;;26.10;57.20;;;;;;5089047;27;21104;-48
2022/06/24 13:04:25;;;;;;;1.67;1.57;;;26.10;57.30;;;;;;5079335;28;20618;-51
2022/06/24 13:07:06;;;;;;;2.17;1.93;;;26.10;57.30;;;;;;5074905;28;20612;-48
2022/06/24 13:09:46;;;;;;;1.90;1.80;;;26.10;57.00;;;;;;5107660;27;20642;-46
2022/06/24 13:12:28;;;;;;;2.27;2.07;;;26.10;57.40;;;;;;5071389;28;20538;-49
2022/06/24 13:15:11;;;;;;;2.23;2.10;;;26.10;57.20;;;;;;5103200;27;20605;-47
2022/06/24 13:17:52;;;;;;;2.30;2.10;;;26.10;57.10;;;;;;5064267;28;21112;-49
2022/06/24 13:20:32;;;;;;;2.27;2.07;;;26.10;57.30;;;;;;5077356;27;20647;-50
2022/06/24 13:23:13;;;;;;;2.27;2.10;;;26.10;57.20;;;;;;5059561;27;21253;-47
2022/06/24 13:25:58;;;;;;;2.30;2.10;;;26.10;56.90;;;;;;5113982;27;21086;-48
2022/06/24 13:28:38;;;;;;;2.47;2.27;;;26.10;57.00;;;;;;5101247;27;20544;-49
2022/06/24 13:31:19;;;;;;;2.07;1.90;;;26.10;56.80;;;;;;5086754;28;20571;-47
2022/06/24 13:33:58;;;;;;;3.00;1.92;;;26.10;56.60;;;;;;5073019;27;1207783;-50
2022/06/24 13:36:39;;;;;;;1.90;1.80;;;26.10;56.40;;;;;;5077040;28;20594;-47
2022/06/24 13:39:18;;;;;;;2.20;2.00;;;26.10;56.60;;;;;;5083874;28;20583;-48
2022/06/24 13:41:59;;;;;;;1.77;1.67;;;26.10;57.10;;;;;;5082014;28;21049;-67
2022/06/24 13:44:40;;;;;;;1.87;1.73;;;26.10;56.80;;;;;;5113251;27;20581;-48
2022/06/24 13:47:21;;;;;;;1.60;1.50;;;26.10;56.70;;;;;;5060434;28;20600;-47
2022/06/24 13:50:01;;;;;;;1.87;1.60;;;26.10;56.60;;;;;;5107957;27;20544;-48
2022/06/24 13:52:42;;;;;;;1.70;1.60;;;26.10;57.50;;;;;;5097529;27;20536;-48
2022/06/24 13:55:22;;;;;;;1.67;1.57;;;26.10;57.20;;;;;;5087090;28;21051;-49
2022/06/24 13:58:04;;;;;;;2.10;1.90;;;26.10;57.20;;;;;;5058595;28;20972;-48
2022/06/24 14:00:45;;;;;;;1.40;1.30;;;26.10;57.40;;;;;;5066793;28;20548;-47
2022/06/24 14:03:26;;;;;;;1.63;1.53;;;26.10;57.30;;;;;;5055316;28;20550;-48
2022/06/24 14:06:08;;;;;;;1.87;1.60;;;26.10;57.40;;;;;;5071699;28;20852;-46
2022/06/24 14:08:48;;;;;;;1.77;1.67;;;26.10;56.90;;;;;;5060457;27;20542;-47
2022/06/24 14:11:30;;;;;;;2.03;1.93;;;26.10;56.80;;;;;;5126666;27;20520;-48
2022/06/24 14:14:12;;;;;;;2.10;1.67;;;26.10;56.70;;;;;;5082406;28;20558;-48